sensor_id;sensor_type;location;lat;lon;timestamp;P1;durP1;ratioP1;P2;durP2;ratioP2
9005;SDS011;62284;50.702;7.140;2022-12-15T00:00:58;23.73;;;20.37;;
9005;SDS011;62284;50.702;7.140;2022-12-15T00:03:42;27.60;;;21.03;;
9005;SDS011;62284;50.702;7.140;2022-12-15T00:06:27;26.80;;;21.93;;
9005;SDS011;62284;50.702;7.140;2022-12-15T00:09:12;34.83;;;22.67;;
9005;SDS011;62284;50.702;7.140;2022-12-15T00:11:56;30.23;;;22.67;;
9005;SDS011;62284;50.702;7.140;2022-12-15T00:14:40;34.80;;;25.67;;
9005;SDS011;62284;50.702;7.140;2022-12-15T00:17:25;30.20;;;22.77;;
9005;SDS011;62284;50.702;7.140;2022-12-15T00:20:09;31.47;;;23.33;;
9005;SDS011;62284;50.702;7.140;2022-12-15T00:22:55;28.17;;;25.30;;
9005;SDS011;62284;50.702;7.140;2022-12-15T00:25:39;26.00;;;21.73;;
9005;SDS011;62284;50.702;7.140;2022-12-15T00:28:23;25.00;;;20.63;;
9005;SDS011;62284;50.702;7.140;2022-12-15T00:31:07;28.73;;;21.93;;
9005;SDS011;62284;50.702;7.140;2022-12-15T00:33:51;28.63;;;23.03;;
9005;SDS011;62284;50.702;7.140;2022-12-15T00:36:35;27.00;;;20.03;;
9005;SDS011;62284;50.702;7.140;2022-12-15T00:39:21;26.67;;;21.40;;
9005;SDS011;62284;50.702;7.140;2022-12-15T00:41:47;28.00;;;22.23;;
9005;SDS011;62284;50.702;7.140;2022-12-15T00:44:14;24.37;;;19.67;;
9005;SDS011;62284;50.702;7.140;2022-12-15T00:46:41;26.93;;;21.43;;
9005;SDS011;62284;50.702;7.140;2022-12-15T00:49:19;27.77;;;20.70;;
9005;SDS011;62284;50.702;7.140;2022-12-15T00:52:03;25.27;;;21.10;;
9005;SDS011;62284;50.702;7.140;2022-12-15T00:54:49;26.83;;;20.77;;
9005;SDS011;62284;50.702;7.140;2022-12-15T00:57:34;27.17;;;21.00;;
9005;SDS011;62284;50.702;7.140;2022-12-15T01:00:18;27.93;;;20.63;;
9005;SDS011;62284;50.702;7.140;2022-12-15T01:03:08;32.13;;;23.80;;
9005;SDS011;62284;50.702;7.140;2022-12-15T01:05:53;26.87;;;22.03;;
9005;SDS011;62284;50.702;7.140;2022-12-15T01:08:37;30.27;;;22.83;;
9005;SDS011;62284;50.702;7.140;2022-12-15T01:11:23;30.37;;;21.20;;
9005;SDS011;62284;50.702;7.140;2022-12-15T01:14:07;29.43;;;21.17;;
9005;SDS011;62284;50.702;7.140;2022-12-15T01:16:51;28.93;;;22.87;;
9005;SDS011;62284;50.702;7.140;2022-12-15T01:19:35;27.10;;;20.60;;
9005;SDS011;62284;50.702;7.140;2022-12-15T01:22:20;27.43;;;21.07;;
9005;SDS011;62284;50.702;7.140;2022-12-15T01:24:47;28.73;;;21.10;;
9005;SDS011;62284;50.702;7.140;2022-12-15T01:27:15;25.17;;;19.77;;
9005;SDS011;62284;50.702;7.140;2022-12-15T01:29:42;24.37;;;20.47;;
9005;SDS011;62284;50.702;7.140;2022-12-15T01:32:09;27.83;;;20.87;;
9005;SDS011;62284;50.702;7.140;2022-12-15T01:34:36;28.23;;;22.87;;
9005;SDS011;62284;50.702;7.140;2022-12-15T01:37:02;24.47;;;20.33;;
9005;SDS011;62284;50.702;7.140;2022-12-15T01:39:29;25.00;;;20.10;;
9005;SDS011;62284;50.702;7.140;2022-12-15T01:42:18;23.17;;;19.10;;
9005;SDS011;62284;50.702;7.140;2022-12-15T01:44:45;22.77;;;19.07;;
9005;SDS011;62284;50.702;7.140;2022-12-15T01:47:23;23.83;;;18.87;;
9005;SDS011;62284;50.702;7.140;2022-12-15T01:49:51;21.93;;;17.97;;
9005;SDS011;62284;50.702;7.140;2022-12-15T01:52:19;22.90;;;19.50;;
9005;SDS011;62284;50.702;7.140;2022-12-15T01:54:47;23.40;;;17.47;;
9005;SDS011;62284;50.702;7.140;2022-12-15T01:57:21;23.47;;;19.53;;
9005;SDS011;62284;50.702;7.140;2022-12-15T01:59:53;24.20;;;20.40;;
9005;SDS011;62284;50.702;7.140;2022-12-15T02:02:24;24.67;;;20.10;;
9005;SDS011;62284;50.702;7.140;2022-12-15T02:04:54;23.33;;;19.20;;
9005;SDS011;62284;50.702;7.140;2022-12-15T02:07:23;26.43;;;20.77;;
9005;SDS011;62284;50.702;7.140;2022-12-15T02:09:50;25.03;;;19.43;;
9005;SDS011;62284;50.702;7.140;2022-12-15T02:12:20;23.90;;;19.20;;
9005;SDS011;62284;50.702;7.140;2022-12-15T02:15:09;24.07;;;19.50;;
9005;SDS011;62284;50.702;7.140;2022-12-15T02:17:46;23.07;;;20.03;;
9005;SDS011;62284;50.702;7.140;2022-12-15T02:26:09;23.27;;;19.70;;
9005;SDS011;62284;50.702;7.140;2022-12-15T02:28:56;26.77;;;19.77;;
9005;SDS011;62284;50.702;7.140;2022-12-15T02:31:36;25.63;;;20.53;;
9005;SDS011;62284;50.702;7.140;2022-12-15T02:34:17;22.20;;;19.53;;
9005;SDS011;62284;50.702;7.140;2022-12-15T02:36:50;26.30;;;21.03;;
9005;SDS011;62284;50.702;7.140;2022-12-15T02:39:21;26.90;;;21.13;;
9005;SDS011;62284;50.702;7.140;2022-12-15T02:41:48;24.97;;;20.30;;
9005;SDS011;62284;50.702;7.140;2022-12-15T02:44:17;26.53;;;21.57;;
9005;SDS011;62284;50.702;7.140;2022-12-15T02:47:03;26.30;;;20.20;;
9005;SDS011;62284;50.702;7.140;2022-12-15T02:49:45;25.67;;;20.50;;
9005;SDS011;62284;50.702;7.140;2022-12-15T02:52:22;26.00;;;19.63;;
9005;SDS011;62284;50.702;7.140;2022-12-15T02:55:08;24.90;;;20.40;;
9005;SDS011;62284;50.702;7.140;2022-12-15T02:57:42;25.30;;;19.87;;
9005;SDS011;62284;50.702;7.140;2022-12-15T03:00:16;23.13;;;18.80;;
9005;SDS011;62284;50.702;7.140;2022-12-15T03:02:46;24.03;;;19.33;;
9005;SDS011;62284;50.702;7.140;2022-12-15T03:05:16;27.00;;;20.63;;
9005;SDS011;62284;50.702;7.140;2022-12-15T03:07:44;21.37;;;18.53;;
9005;SDS011;62284;50.702;7.140;2022-12-15T03:10:14;21.73;;;18.30;;
9005;SDS011;62284;50.702;7.140;2022-12-15T03:12:41;24.93;;;18.97;;
9005;SDS011;62284;50.702;7.140;2022-12-15T03:15:08;24.13;;;19.00;;
9005;SDS011;62284;50.702;7.140;2022-12-15T03:17:35;26.63;;;20.57;;
9005;SDS011;62284;50.702;7.140;2022-12-15T03:20:04;26.63;;;20.47;;
9005;SDS011;62284;50.702;7.140;2022-12-15T03:22:32;27.43;;;21.93;;
9005;SDS011;62284;50.702;7.140;2022-12-15T03:24:59;25.97;;;20.83;;
9005;SDS011;62284;50.702;7.140;2022-12-15T03:27:26;25.73;;;19.37;;
9005;SDS011;62284;50.702;7.140;2022-12-15T03:29:54;25.13;;;19.43;;
9005;SDS011;62284;50.702;7.140;2022-12-15T03:32:20;26.83;;;19.97;;
9005;SDS011;62284;50.702;7.140;2022-12-15T03:34:47;23.80;;;18.97;;
9005;SDS011;62284;50.702;7.140;2022-12-15T03:37:15;22.93;;;19.00;;
9005;SDS011;62284;50.702;7.140;2022-12-15T03:39:42;25.33;;;20.33;;
9005;SDS011;62284;50.702;7.140;2022-12-15T03:42:09;24.83;;;19.17;;
9005;SDS011;62284;50.702;7.140;2022-12-15T03:44:36;22.53;;;19.27;;
9005;SDS011;62284;50.702;7.140;2022-12-15T03:47:03;23.57;;;18.73;;
9005;SDS011;62284;50.702;7.140;2022-12-15T03:49:30;23.23;;;17.97;;
9005;SDS011;62284;50.702;7.140;2022-12-15T03:51:56;22.43;;;19.03;;
9005;SDS011;62284;50.702;7.140;2022-12-15T03:54:24;23.30;;;18.13;;
9005;SDS011;62284;50.702;7.140;2022-12-15T03:56:51;22.53;;;18.97;;
9005;SDS011;62284;50.702;7.140;2022-12-15T03:59:18;22.57;;;18.97;;
9005;SDS011;62284;50.702;7.140;2022-12-15T04:01:46;21.07;;;17.27;;
9005;SDS011;62284;50.702;7.140;2022-12-15T04:04:13;19.90;;;17.23;;
9005;SDS011;62284;50.702;7.140;2022-12-15T04:06:40;23.60;;;19.70;;
9005;SDS011;62284;50.702;7.140;2022-12-15T04:09:07;21.40;;;17.83;;
9005;SDS011;62284;50.702;7.140;2022-12-15T04:11:35;20.37;;;17.77;;
9005;SDS011;62284;50.702;7.140;2022-12-15T04:14:02;21.77;;;18.67;;
9005;SDS011;62284;50.702;7.140;2022-12-15T04:16:29;22.17;;;18.07;;
9005;SDS011;62284;50.702;7.140;2022-12-15T04:18:56;21.93;;;18.17;;
9005;SDS011;62284;50.702;7.140;2022-12-15T04:21:40;19.53;;;16.73;;
9005;SDS011;62284;50.702;7.140;2022-12-15T04:24:07;20.30;;;18.20;;
9005;SDS011;62284;50.702;7.140;2022-12-15T04:26:53;24.93;;;19.93;;
9005;SDS011;62284;50.702;7.140;2022-12-15T04:29:37;22.07;;;18.60;;
9005;SDS011;62284;50.702;7.140;2022-12-15T04:32:21;20.57;;;17.33;;
9005;SDS011;62284;50.702;7.140;2022-12-15T04:35:06;23.50;;;18.37;;
9005;SDS011;62284;50.702;7.140;2022-12-15T04:37:51;21.27;;;18.30;;
9005;SDS011;62284;50.702;7.140;2022-12-15T04:40:35;19.87;;;17.43;;
9005;SDS011;62284;50.702;7.140;2022-12-15T04:43:21;21.40;;;18.80;;
9005;SDS011;62284;50.702;7.140;2022-12-15T04:46:06;19.37;;;17.03;;
9005;SDS011;62284;50.702;7.140;2022-12-15T04:48:50;24.47;;;19.53;;
9005;SDS011;62284;50.702;7.140;2022-12-15T04:51:34;20.17;;;17.03;;
9005;SDS011;62284;50.702;7.140;2022-12-15T04:54:18;18.63;;;16.00;;
9005;SDS011;62284;50.702;7.140;2022-12-15T04:57:03;19.77;;;17.00;;
9005;SDS011;62284;50.702;7.140;2022-12-15T04:59:48;23.37;;;18.07;;
9005;SDS011;62284;50.702;7.140;2022-12-15T05:02:33;18.43;;;15.87;;
9005;SDS011;62284;50.702;7.140;2022-12-15T05:05:17;20.63;;;17.40;;
9005;SDS011;62284;50.702;7.140;2022-12-15T05:08:01;21.27;;;17.87;;
9005;SDS011;62284;50.702;7.140;2022-12-15T05:10:45;21.43;;;18.03;;
9005;SDS011;62284;50.702;7.140;2022-12-15T05:13:29;22.37;;;17.70;;
9005;SDS011;62284;50.702;7.140;2022-12-15T05:16:15;22.60;;;17.00;;
9005;SDS011;62284;50.702;7.140;2022-12-15T05:18:59;18.90;;;16.07;;
9005;SDS011;62284;50.702;7.140;2022-12-15T05:21:43;21.47;;;16.83;;
9005;SDS011;62284;50.702;7.140;2022-12-15T05:24:28;18.63;;;16.70;;
9005;SDS011;62284;50.702;7.140;2022-12-15T05:27:12;19.20;;;16.63;;
9005;SDS011;62284;50.702;7.140;2022-12-15T05:29:56;20.20;;;17.23;;
9005;SDS011;62284;50.702;7.140;2022-12-15T05:32:41;20.53;;;17.50;;
9005;SDS011;62284;50.702;7.140;2022-12-15T05:35:08;18.73;;;16.50;;
9005;SDS011;62284;50.702;7.140;2022-12-15T05:37:35;19.50;;;16.63;;
9005;SDS011;62284;50.702;7.140;2022-12-15T05:40:03;19.17;;;16.53;;
9005;SDS011;62284;50.702;7.140;2022-12-15T05:42:30;19.63;;;17.53;;
9005;SDS011;62284;50.702;7.140;2022-12-15T05:44:57;22.33;;;18.67;;
9005;SDS011;62284;50.702;7.140;2022-12-15T05:47:24;19.23;;;17.17;;
9005;SDS011;62284;50.702;7.140;2022-12-15T05:49:52;20.53;;;17.03;;
9005;SDS011;62284;50.702;7.140;2022-12-15T05:52:19;19.17;;;16.37;;
9005;SDS011;62284;50.702;7.140;2022-12-15T05:54:45;21.40;;;17.97;;
9005;SDS011;62284;50.702;7.140;2022-12-15T05:57:12;23.13;;;17.93;;
9005;SDS011;62284;50.702;7.140;2022-12-15T05:59:39;18.27;;;16.27;;
9005;SDS011;62284;50.702;7.140;2022-12-15T06:02:06;21.43;;;17.83;;
9005;SDS011;62284;50.702;7.140;2022-12-15T06:04:33;23.97;;;18.13;;
9005;SDS011;62284;50.702;7.140;2022-12-15T06:07:01;19.67;;;17.23;;
9005;SDS011;62284;50.702;7.140;2022-12-15T06:09:28;20.20;;;17.87;;
9005;SDS011;62284;50.702;7.140;2022-12-15T06:11:55;22.73;;;19.07;;
9005;SDS011;62284;50.702;7.140;2022-12-15T06:14:21;20.83;;;17.83;;
9005;SDS011;62284;50.702;7.140;2022-12-15T06:16:48;22.80;;;19.67;;
9005;SDS011;62284;50.702;7.140;2022-12-15T06:19:15;22.20;;;19.00;;
9005;SDS011;62284;50.702;7.140;2022-12-15T06:21:42;23.80;;;19.50;;
9005;SDS011;62284;50.702;7.140;2022-12-15T06:24:10;23.07;;;19.97;;
9005;SDS011;62284;50.702;7.140;2022-12-15T06:26:37;25.20;;;20.30;;
9005;SDS011;62284;50.702;7.140;2022-12-15T06:29:05;22.80;;;19.90;;
9005;SDS011;62284;50.702;7.140;2022-12-15T06:31:34;25.07;;;20.77;;
9005;SDS011;62284;50.702;7.140;2022-12-15T06:34:02;26.20;;;21.40;;
9005;SDS011;62284;50.702;7.140;2022-12-15T06:36:30;26.63;;;20.93;;
9005;SDS011;62284;50.702;7.140;2022-12-15T06:38:57;25.67;;;21.60;;
9005;SDS011;62284;50.702;7.140;2022-12-15T06:41:27;26.70;;;21.70;;
9005;SDS011;62284;50.702;7.140;2022-12-15T06:43:55;26.83;;;21.93;;
9005;SDS011;62284;50.702;7.140;2022-12-15T06:46:22;27.17;;;23.53;;
9005;SDS011;62284;50.702;7.140;2022-12-15T06:48:50;31.30;;;24.80;;
9005;SDS011;62284;50.702;7.140;2022-12-15T06:51:17;33.07;;;24.77;;
9005;SDS011;62284;50.702;7.140;2022-12-15T06:53:44;30.07;;;23.27;;
9005;SDS011;62284;50.702;7.140;2022-12-15T06:56:15;35.23;;;24.90;;
9005;SDS011;62284;50.702;7.140;2022-12-15T06:58:47;33.53;;;26.33;;
9005;SDS011;62284;50.702;7.140;2022-12-15T07:01:14;31.58;;;23.38;;
9005;SDS011;62284;50.702;7.140;2022-12-15T07:03:42;30.50;;;24.90;;
9005;SDS011;62284;50.702;7.140;2022-12-15T07:06:09;29.37;;;25.20;;
9005;SDS011;62284;50.702;7.140;2022-12-15T07:08:38;30.13;;;23.63;;
9005;SDS011;62284;50.702;7.140;2022-12-15T07:11:06;29.97;;;24.17;;
9005;SDS011;62284;50.702;7.140;2022-12-15T07:13:35;33.27;;;26.03;;
9005;SDS011;62284;50.702;7.140;2022-12-15T07:16:04;34.07;;;25.13;;
9005;SDS011;62284;50.702;7.140;2022-12-15T07:18:32;32.27;;;28.93;;
9005;SDS011;62284;50.702;7.140;2022-12-15T07:21:00;29.97;;;25.03;;
9005;SDS011;62284;50.702;7.140;2022-12-15T07:23:28;34.37;;;25.67;;
9005;SDS011;62284;50.702;7.140;2022-12-15T07:25:55;34.87;;;25.80;;
9005;SDS011;62284;50.702;7.140;2022-12-15T07:28:22;32.00;;;28.70;;
9005;SDS011;62284;50.702;7.140;2022-12-15T07:30:49;36.20;;;32.37;;
9005;SDS011;62284;50.702;7.140;2022-12-15T07:33:17;37.80;;;27.50;;
9005;SDS011;62284;50.702;7.140;2022-12-15T07:35:51;35.33;;;26.13;;
9005;SDS011;62284;50.702;7.140;2022-12-15T07:38:18;32.63;;;26.63;;
9005;SDS011;62284;50.702;7.140;2022-12-15T07:40:45;44.93;;;30.63;;
9005;SDS011;62284;50.702;7.140;2022-12-15T07:43:13;38.93;;;34.73;;
9005;SDS011;62284;50.702;7.140;2022-12-15T07:45:40;39.83;;;35.47;;
9005;SDS011;62284;50.702;7.140;2022-12-15T07:48:07;43.00;;;38.37;;
9005;SDS011;62284;50.702;7.140;2022-12-15T07:50:36;42.77;;;30.57;;
9005;SDS011;62284;50.702;7.140;2022-12-15T07:53:03;37.93;;;34.13;;
9005;SDS011;62284;50.702;7.140;2022-12-15T07:55:30;39.93;;;31.83;;
9005;SDS011;62284;50.702;7.140;2022-12-15T07:57:57;39.73;;;35.73;;
9005;SDS011;62284;50.702;7.140;2022-12-15T08:00:24;40.33;;;36.20;;
9005;SDS011;62284;50.702;7.140;2022-12-15T08:02:52;41.97;;;31.60;;
9005;SDS011;62284;50.702;7.140;2022-12-15T08:05:19;40.47;;;31.03;;
9005;SDS011;62284;50.702;7.140;2022-12-15T08:07:47;40.27;;;36.07;;
9005;SDS011;62284;50.702;7.140;2022-12-15T08:10:14;41.80;;;37.70;;
9005;SDS011;62284;50.702;7.140;2022-12-15T08:12:41;37.33;;;32.90;;
9005;SDS011;62284;50.702;7.140;2022-12-15T08:15:08;39.93;;;35.80;;
9005;SDS011;62284;50.702;7.140;2022-12-15T08:17:35;37.57;;;33.77;;
9005;SDS011;62284;50.702;7.140;2022-12-15T08:20:03;40.90;;;36.70;;
9005;SDS011;62284;50.702;7.140;2022-12-15T08:22:30;38.57;;;34.60;;
9005;SDS011;62284;50.702;7.140;2022-12-15T08:24:58;39.70;;;35.60;;
9005;SDS011;62284;50.702;7.140;2022-12-15T08:27:25;38.70;;;34.60;;
9005;SDS011;62284;50.702;7.140;2022-12-15T08:29:52;42.63;;;38.27;;
9005;SDS011;62284;50.702;7.140;2022-12-15T08:32:19;41.57;;;37.30;;
9005;SDS011;62284;50.702;7.140;2022-12-15T08:34:46;38.43;;;32.13;;
9005;SDS011;62284;50.702;7.140;2022-12-15T08:37:14;40.20;;;36.10;;
9005;SDS011;62284;50.702;7.140;2022-12-15T08:39:41;40.67;;;36.40;;
9005;SDS011;62284;50.702;7.140;2022-12-15T08:42:09;40.73;;;36.53;;
9005;SDS011;62284;50.702;7.140;2022-12-15T08:44:36;43.13;;;38.73;;
9005;SDS011;62284;50.702;7.140;2022-12-15T08:47:03;41.40;;;37.10;;
9005;SDS011;62284;50.702;7.140;2022-12-15T08:49:29;40.97;;;36.93;;
9005;SDS011;62284;50.702;7.140;2022-12-15T08:51:56;43.17;;;38.47;;
9005;SDS011;62284;50.702;7.140;2022-12-15T08:54:23;47.63;;;42.77;;
9005;SDS011;62284;50.702;7.140;2022-12-15T08:56:50;41.07;;;37.00;;
9005;SDS011;62284;50.702;7.140;2022-12-15T08:59:18;40.60;;;36.60;;
9005;SDS011;62284;50.702;7.140;2022-12-15T09:01:45;44.10;;;39.53;;
9005;SDS011;62284;50.702;7.140;2022-12-15T09:04:12;42.60;;;38.20;;
9005;SDS011;62284;50.702;7.140;2022-12-15T09:06:39;44.53;;;40.07;;
9005;SDS011;62284;50.702;7.140;2022-12-15T09:09:07;40.57;;;36.53;;
9005;SDS011;62284;50.702;7.140;2022-12-15T09:11:36;40.73;;;36.53;;
9005;SDS011;62284;50.702;7.140;2022-12-15T09:14:03;40.47;;;36.33;;
9005;SDS011;62284;50.702;7.140;2022-12-15T09:16:32;43.03;;;38.10;;
9005;SDS011;62284;50.702;7.140;2022-12-15T09:18:59;41.43;;;37.10;;
9005;SDS011;62284;50.702;7.140;2022-12-15T09:21:28;44.33;;;39.67;;
9005;SDS011;62284;50.702;7.140;2022-12-15T09:23:56;41.73;;;37.40;;
9005;SDS011;62284;50.702;7.140;2022-12-15T09:26:26;41.13;;;36.97;;
9005;SDS011;62284;50.702;7.140;2022-12-15T09:28:54;40.67;;;36.67;;
9005;SDS011;62284;50.702;7.140;2022-12-15T09:31:22;41.57;;;37.37;;
9005;SDS011;62284;50.702;7.140;2022-12-15T09:33:55;42.03;;;37.97;;
9005;SDS011;62284;50.702;7.140;2022-12-15T09:36:23;39.83;;;35.80;;
9005;SDS011;62284;50.702;7.140;2022-12-15T09:38:51;43.70;;;39.17;;
9005;SDS011;62284;50.702;7.140;2022-12-15T09:41:20;38.90;;;35.10;;
9005;SDS011;62284;50.702;7.140;2022-12-15T09:43:50;40.40;;;36.37;;
9005;SDS011;62284;50.702;7.140;2022-12-15T09:46:23;41.17;;;36.83;;
9005;SDS011;62284;50.702;7.140;2022-12-15T09:48:57;37.30;;;33.30;;
9005;SDS011;62284;50.702;7.140;2022-12-15T09:51:28;36.30;;;32.80;;
9005;SDS011;62284;50.702;7.140;2022-12-15T09:53:59;34.80;;;31.47;;
9005;SDS011;62284;50.702;7.140;2022-12-15T09:56:28;35.13;;;31.63;;
9005;SDS011;62284;50.702;7.140;2022-12-15T09:59:02;36.07;;;32.50;;
9005;SDS011;62284;50.702;7.140;2022-12-15T10:01:36;36.80;;;33.33;;
9005;SDS011;62284;50.702;7.140;2022-12-15T10:04:13;35.47;;;32.23;;
9005;SDS011;62284;50.702;7.140;2022-12-15T10:06:47;35.57;;;32.07;;
9005;SDS011;62284;50.702;7.140;2022-12-15T10:09:20;34.83;;;31.43;;
9005;SDS011;62284;50.702;7.140;2022-12-15T10:11:53;33.20;;;30.20;;
9005;SDS011;62284;50.702;7.140;2022-12-15T10:14:25;37.07;;;33.37;;
9005;SDS011;62284;50.702;7.140;2022-12-15T10:17:01;37.10;;;33.57;;
9005;SDS011;62284;50.702;7.140;2022-12-15T10:19:35;35.63;;;32.43;;
9005;SDS011;62284;50.702;7.140;2022-12-15T10:22:07;37.53;;;33.97;;
9005;SDS011;62284;50.702;7.140;2022-12-15T10:24:37;31.93;;;29.03;;
9005;SDS011;62284;50.702;7.140;2022-12-15T10:27:07;34.53;;;31.43;;
9005;SDS011;62284;50.702;7.140;2022-12-15T10:29:46;31.30;;;28.40;;
9005;SDS011;62284;50.702;7.140;2022-12-15T10:32:22;33.50;;;30.30;;
9005;SDS011;62284;50.702;7.140;2022-12-15T10:34:59;30.80;;;28.00;;
9005;SDS011;62284;50.702;7.140;2022-12-15T10:37:26;31.03;;;28.23;;
9005;SDS011;62284;50.702;7.140;2022-12-15T10:39:52;33.37;;;30.33;;
9005;SDS011;62284;50.702;7.140;2022-12-15T10:42:20;32.57;;;29.43;;
9005;SDS011;62284;50.702;7.140;2022-12-15T10:44:49;30.93;;;28.07;;
9005;SDS011;62284;50.702;7.140;2022-12-15T10:47:19;31.80;;;28.90;;
9005;SDS011;62284;50.702;7.140;2022-12-15T10:49:47;31.93;;;28.73;;
9005;SDS011;62284;50.702;7.140;2022-12-15T10:52:17;30.60;;;27.80;;
9005;SDS011;62284;50.702;7.140;2022-12-15T10:54:48;28.27;;;25.77;;
9005;SDS011;62284;50.702;7.140;2022-12-15T10:57:16;27.40;;;24.97;;
9005;SDS011;62284;50.702;7.140;2022-12-15T10:59:45;27.67;;;25.17;;
9005;SDS011;62284;50.702;7.140;2022-12-15T11:05:13;29.57;;;27.07;;
9005;SDS011;62284;50.702;7.140;2022-12-15T11:07:44;28.27;;;25.70;;
9005;SDS011;62284;50.702;7.140;2022-12-15T11:10:16;27.03;;;24.73;;
9005;SDS011;62284;50.702;7.140;2022-12-15T11:12:56;28.67;;;26.13;;
9005;SDS011;62284;50.702;7.140;2022-12-15T11:15:44;29.20;;;26.50;;
9005;SDS011;62284;50.702;7.140;2022-12-15T11:18:17;31.93;;;28.97;;
9005;SDS011;62284;50.702;7.140;2022-12-15T11:20:53;30.70;;;27.93;;
9005;SDS011;62284;50.702;7.140;2022-12-15T11:23:32;31.30;;;28.50;;
9005;SDS011;62284;50.702;7.140;2022-12-15T11:26:11;30.33;;;27.60;;
9005;SDS011;62284;50.702;7.140;2022-12-15T11:28:51;29.50;;;26.90;;
9005;SDS011;62284;50.702;7.140;2022-12-15T11:31:24;28.63;;;25.97;;
9005;SDS011;62284;50.702;7.140;2022-12-15T11:33:57;32.47;;;29.37;;
9005;SDS011;62284;50.702;7.140;2022-12-15T11:36:38;31.57;;;28.63;;
9005;SDS011;62284;50.702;7.140;2022-12-15T11:39:18;31.07;;;28.27;;
9005;SDS011;62284;50.702;7.140;2022-12-15T11:41:56;32.80;;;29.77;;
9005;SDS011;62284;50.702;7.140;2022-12-15T11:44:29;32.50;;;29.43;;
9005;SDS011;62284;50.702;7.140;2022-12-15T11:47:06;30.70;;;28.00;;
9005;SDS011;62284;50.702;7.140;2022-12-15T11:52:36;27.90;;;25.47;;
9005;SDS011;62284;50.702;7.140;2022-12-15T11:55:15;30.17;;;27.47;;
9005;SDS011;62284;50.702;7.140;2022-12-15T11:58:03;30.93;;;28.13;;
9005;SDS011;62284;50.702;7.140;2022-12-15T12:00:42;31.33;;;28.60;;
9005;SDS011;62284;50.702;7.140;2022-12-15T12:03:24;28.97;;;26.27;;
9005;SDS011;62284;50.702;7.140;2022-12-15T12:05:58;32.40;;;29.40;;
9005;SDS011;62284;50.702;7.140;2022-12-15T12:08:43;31.40;;;28.50;;
9005;SDS011;62284;50.702;7.140;2022-12-15T12:11:29;30.30;;;27.57;;
9005;SDS011;62284;50.702;7.140;2022-12-15T12:14:11;28.90;;;26.33;;
9005;SDS011;62284;50.702;7.140;2022-12-15T12:16:46;27.63;;;25.23;;
9005;SDS011;62284;50.702;7.140;2022-12-15T12:19:21;28.93;;;26.43;;
9005;SDS011;62284;50.702;7.140;2022-12-15T12:21:53;31.17;;;28.47;;
9005;SDS011;62284;50.702;7.140;2022-12-15T12:24:25;28.80;;;26.33;;
9005;SDS011;62284;50.702;7.140;2022-12-15T12:26:59;28.87;;;26.37;;
9005;SDS011;62284;50.702;7.140;2022-12-15T12:29:28;28.10;;;25.50;;
9005;SDS011;62284;50.702;7.140;2022-12-15T12:32:01;28.93;;;26.37;;
9005;SDS011;62284;50.702;7.140;2022-12-15T12:34:35;29.50;;;26.90;;
9005;SDS011;62284;50.702;7.140;2022-12-15T12:37:13;28.33;;;25.83;;
9005;SDS011;62284;50.702;7.140;2022-12-15T12:39:44;28.20;;;25.60;;
9005;SDS011;62284;50.702;7.140;2022-12-15T12:42:15;28.80;;;26.30;;
9005;SDS011;62284;50.702;7.140;2022-12-15T12:44:47;29.23;;;26.73;;
9005;SDS011;62284;50.702;7.140;2022-12-15T12:47:15;29.73;;;26.97;;
9005;SDS011;62284;50.702;7.140;2022-12-15T12:49:48;30.63;;;27.93;;
9005;SDS011;62284;50.702;7.140;2022-12-15T12:52:19;30.27;;;27.47;;
9005;SDS011;62284;50.702;7.140;2022-12-15T12:54:57;29.63;;;26.93;;
9005;SDS011;62284;50.702;7.140;2022-12-15T12:57:37;30.10;;;27.40;;
9005;SDS011;62284;50.702;7.140;2022-12-15T13:00:15;30.27;;;27.53;;
9005;SDS011;62284;50.702;7.140;2022-12-15T13:05:45;28.67;;;26.07;;
9005;SDS011;62284;50.702;7.140;2022-12-15T13:08:15;28.27;;;25.80;;
9005;SDS011;62284;50.702;7.140;2022-12-15T13:14:07;29.50;;;26.80;;
9005;SDS011;62284;50.702;7.140;2022-12-15T13:16:39;27.87;;;25.47;;
9005;SDS011;62284;50.702;7.140;2022-12-15T13:19:06;29.63;;;26.83;;
9005;SDS011;62284;50.702;7.140;2022-12-15T13:21:50;30.10;;;27.30;;
9005;SDS011;62284;50.702;7.140;2022-12-15T13:24:24;30.13;;;27.53;;
9005;SDS011;62284;50.702;7.140;2022-12-15T13:29:55;29.90;;;27.13;;
9005;SDS011;62284;50.702;7.140;2022-12-15T13:32:28;28.80;;;26.30;;
9005;SDS011;62284;50.702;7.140;2022-12-15T13:35:00;28.90;;;26.40;;
9005;SDS011;62284;50.702;7.140;2022-12-15T13:37:45;30.13;;;27.33;;
9005;SDS011;62284;50.702;7.140;2022-12-15T13:40:28;29.63;;;26.83;;
9005;SDS011;62284;50.702;7.140;2022-12-15T13:42:59;31.70;;;28.80;;
9005;SDS011;62284;50.702;7.140;2022-12-15T13:45:45;30.33;;;27.43;;
9005;SDS011;62284;50.702;7.140;2022-12-15T13:48:26;31.43;;;28.47;;
9005;SDS011;62284;50.702;7.140;2022-12-15T13:51:00;29.60;;;26.97;;
9005;SDS011;62284;50.702;7.140;2022-12-15T13:53:32;33.40;;;30.30;;
9005;SDS011;62284;50.702;7.140;2022-12-15T13:56:05;38.47;;;34.77;;
9005;SDS011;62284;50.702;7.140;2022-12-15T13:58:53;34.13;;;30.90;;
9005;SDS011;62284;50.702;7.140;2022-12-15T14:01:26;35.03;;;31.70;;
9005;SDS011;62284;50.702;7.140;2022-12-15T14:06:43;34.63;;;31.03;;
9005;SDS011;62284;50.702;7.140;2022-12-15T14:09:12;34.67;;;31.30;;
9005;SDS011;62284;50.702;7.140;2022-12-15T14:11:42;33.27;;;30.27;;
9005;SDS011;62284;50.702;7.140;2022-12-15T14:14:14;33.93;;;30.87;;
9005;SDS011;62284;50.702;7.140;2022-12-15T14:16:45;33.97;;;30.87;;
9005;SDS011;62284;50.702;7.140;2022-12-15T14:19:17;34.77;;;31.47;;
9005;SDS011;62284;50.702;7.140;2022-12-15T14:21:47;35.93;;;32.47;;
9005;SDS011;62284;50.702;7.140;2022-12-15T14:24:22;33.33;;;30.33;;
9005;SDS011;62284;50.702;7.140;2022-12-15T14:26:51;36.27;;;32.93;;
9005;SDS011;62284;50.702;7.140;2022-12-15T14:29:18;33.33;;;30.30;;
9005;SDS011;62284;50.702;7.140;2022-12-15T14:31:48;36.73;;;33.30;;
9005;SDS011;62284;50.702;7.140;2022-12-15T14:34:20;35.93;;;32.70;;
9005;SDS011;62284;50.702;7.140;2022-12-15T14:36:54;37.07;;;33.27;;
9005;SDS011;62284;50.702;7.140;2022-12-15T14:39:23;36.17;;;32.60;;
9005;SDS011;62284;50.702;7.140;2022-12-15T14:41:53;35.77;;;32.10;;
9005;SDS011;62284;50.702;7.140;2022-12-15T14:44:24;36.17;;;32.77;;
9005;SDS011;62284;50.702;7.140;2022-12-15T14:46:57;35.13;;;31.87;;
9005;SDS011;62284;50.702;7.140;2022-12-15T14:49:27;36.40;;;32.87;;
9005;SDS011;62284;50.702;7.140;2022-12-15T14:51:57;38.47;;;34.80;;
9005;SDS011;62284;50.702;7.140;2022-12-15T14:54:26;35.90;;;32.60;;
9005;SDS011;62284;50.702;7.140;2022-12-15T14:56:58;36.30;;;32.83;;
9005;SDS011;62284;50.702;7.140;2022-12-15T14:59:29;36.27;;;32.87;;
9005;SDS011;62284;50.702;7.140;2022-12-15T15:02:05;37.80;;;34.40;;
9005;SDS011;62284;50.702;7.140;2022-12-15T15:04:38;38.30;;;34.70;;
9005;SDS011;62284;50.702;7.140;2022-12-15T15:07:06;37.17;;;33.67;;
9005;SDS011;62284;50.702;7.140;2022-12-15T15:09:41;37.60;;;34.00;;
9005;SDS011;62284;50.702;7.140;2022-12-15T15:12:12;40.23;;;36.23;;
9005;SDS011;62284;50.702;7.140;2022-12-15T15:14:42;38.50;;;34.80;;
9005;SDS011;62284;50.702;7.140;2022-12-15T15:17:24;38.93;;;35.13;;
9005;SDS011;62284;50.702;7.140;2022-12-15T15:19:56;38.80;;;35.23;;
9005;SDS011;62284;50.702;7.140;2022-12-15T15:25:18;39.07;;;35.33;;
9005;SDS011;62284;50.702;7.140;2022-12-15T15:27:51;39.00;;;35.13;;
9005;SDS011;62284;50.702;7.140;2022-12-15T15:30:28;36.60;;;33.07;;
9005;SDS011;62284;50.702;7.140;2022-12-15T15:32:57;38.90;;;35.20;;